Time;durP1;ratioP1;P1;durP2;ratioP2;P2;SDS_P1;SDS_P2;PMS_P1;PMS_P2;Temp;Humidity;BMP_temperature;BMP_pressure;BME280_temperature;BME280_humidity;BME280_pressure;Samples;Min_cycle;Max_cycle;Signal;HPM_P1;HPM_P2
2021/11/04 00:00:26;;;;;;;;;;;;;;;;;;5083612;28;19960;-68
2021/11/04 00:02:54;;;;;;;;;;;;;;;;;;5083846;28;20376;-68
2021/11/04 00:05:21;;;;;;;;;;;;;;;;;;5075364;28;19947;-69
2021/11/04 00:07:51;;;;;;;;;;;;;;;;;;5082757;28;19967;-67
2021/11/04 00:10:18;;;;;;;;;;;;;;;;;;5079301;28;19978;-67
2021/11/04 00:12:45;;;;;;;;;;;;;;;;;;5080212;28;19935;-70
2021/11/04 00:15:12;;;;;;;;;;;;;;;;;;5080779;28;19943;-70
2021/11/04 00:17:39;;;;;;;;;;;;;;;;;;5081871;28;19928;-67
2021/11/04 00:20:06;;;;;;;;;;;;;;;;;;5081633;28;20315;-68
2021/11/04 00:22:33;;;;;;;;;;;;;;;;;;5083336;28;19991;-67
2021/11/04 00:25:00;;;;;;;;;;;;;;;;;;5078058;28;19924;-68
2021/11/04 00:27:26;;;;;;;;;;;;;;;;;;5081470;28;20361;-68
2021/11/04 00:29:53;;;;;;;;;;;;;;;;;;5082730;28;19995;-69
2021/11/04 00:32:20;;;;;;;;;;;;;;;;;;5083451;28;19947;-70
2021/11/04 00:34:47;;;;;;;;;;;;;;;;;;5081705;28;19925;-70
2021/11/04 00:37:14;;;;;;;;;;;;;;;;;;5082428;28;19967;-69
2021/11/04 00:39:41;;;;;;;;;;;;;;;;;;5080924;28;20019;-69
2021/11/04 00:42:08;;;;;;;;;;;;;;;;;;5082058;28;20357;-67
2021/11/04 00:44:35;;;;;;;;;;;;;;;;;;5078835;28;20378;-69
2021/11/04 00:47:02;;;;;;;;;;;;;;;;;;5084181;28;19943;-70
2021/11/04 00:49:29;;;;;;;;;;;;;;;;;;5083382;28;19939;-69
2021/11/04 00:51:56;;;;;;;;;;;;;;;;;;5084578;28;19915;-69
2021/11/04 00:54:23;;;;;;;;;;;;;;;;;;5078464;28;20147;-69
2021/11/04 00:56:50;;;;;;;;;;;;;;;;;;5081997;28;19924;-69
2021/11/04 00:59:17;;;;;;;;;;;;;;;;;;5075409;28;19992;-68
2021/11/04 01:01:44;;;;;;;;;;;;;;;;;;5082411;28;19948;-69
2021/11/04 01:04:11;;;;;;;;;;;;;;;;;;5076346;28;19972;-69
2021/11/04 01:06:38;;;;;;;;;;;;;;;;;;5079501;28;20031;-67
2021/11/04 01:09:05;;;;;;;;;;;;;;;;;;5080906;28;19925;-69
2021/11/04 01:11:32;;;;;;;;;;;;;;;;;;5079226;28;19991;-69
2021/11/04 01:13:59;;;;;;;;;;;;;;;;;;5080305;28;19947;-69
2021/11/04 01:16:26;;;;;;;;;;;;;;;;;;5079213;28;19939;-69
2021/11/04 01:18:53;;;;;;;;;;;;;;;;;;5082287;28;20017;-69
2021/11/04 01:21:20;;;;;;;;;;;;;;;;;;5082301;28;19992;-68
2021/11/04 01:23:47;;;;;;;;;;;;;;;;;;5076343;28;20451;-68
2021/11/04 01:26:14;;;;;;;;;;;;;;;;;;5073564;28;19951;-69
2021/11/04 01:28:41;;;;;;;;;;;;;;;;;;5082070;28;19932;-69
2021/11/04 01:31:08;;;;;;;;;;;;;;;;;;5082080;28;20012;-70
2021/11/04 01:33:35;;;;;;;;;;;;;;;;;;5078230;28;19924;-70
2021/11/04 01:36:02;;;;;;;;;;;;;;;;;;5078610;28;19925;-69
2021/11/04 01:38:29;;;;;;;;;;;;;;;;;;5076002;28;19939;-69
2021/11/04 01:40:56;;;;;;;;;;;;;;;;;;5075895;28;20019;-71
2021/11/04 01:43:23;;;;;;;;;;;;;;;;;;5080951;28;19966;-69
2021/11/04 01:45:50;;;;;;;;;;;;;;;;;;5074703;28;19975;-68
2021/11/04 01:48:17;;;;;;;;;;;;;;;;;;5078818;28;19925;-67
2021/11/04 01:50:44;;;;;;;;;;;;;;;;;;5076642;28;19995;-69
2021/11/04 01:53:11;;;;;;;;;;;;;;;;;;5077128;28;19925;-67
2021/11/04 01:55:38;;;;;;;;;;;;;;;;;;5082049;28;19924;-69
2021/11/04 01:58:05;;;;;;;;;;;;;;;;;;5080071;28;19924;-72
2021/11/04 02:00:32;;;;;;;;;;;;;;;;;;5082718;28;19931;-69
2021/11/04 02:02:59;;;;;;;;;;;;;;;;;;5082207;28;19928;-67
2021/11/04 02:05:26;;;;;;;;;;;;;;;;;;5080191;28;20431;-67
2021/11/04 02:07:53;;;;;;;;;;;;;;;;;;5081120;28;19924;-68
2021/11/04 02:10:20;;;;;;;;;;;;;;;;;;5083025;28;19924;-68
2021/11/04 02:12:47;;;;;;;;;;;;;;;;;;5080829;28;19931;-69
2021/11/04 02:15:14;;;;;;;;;;;;;;;;;;5083088;28;19928;-68
2021/11/04 02:17:41;;;;;;;;;;;;;;;;;;5082601;28;19924;-68
2021/11/04 02:20:08;;;;;;;;;;;;;;;;;;5082156;28;19928;-68
2021/11/04 02:22:35;;;;;;;;;;;;;;;;;;5078424;28;19970;-68
2021/11/04 02:25:02;;;;;;;;;;;;;;;;;;5083347;28;19978;-69
2021/11/04 02:27:29;;;;;;;;;;;;;;;;;;5079360;28;19930;-69
2021/11/04 02:29:56;;;;;;;;;;;;;;;;;;5081036;28;19925;-68
2021/11/04 02:32:23;;;;;;;;;;;;;;;;;;5081800;28;19929;-69
2021/11/04 02:34:50;;;;;;;;;;;;;;;;;;5084221;28;19979;-68
2021/11/04 02:37:17;;;;;;;;;;;;;;;;;;5076163;28;20020;-69
2021/11/04 02:39:44;;;;;;;;;;;;;;;;;;5078036;28;19988;-69
2021/11/04 02:42:11;;;;;;;;;;;;;;;;;;5083126;28;19996;-69
2021/11/04 02:44:38;;;;;;;;;;;;;;;;;;5084813;28;19934;-68
2021/11/04 02:47:06;;;;;;;;;;;;;;;;;;5081029;28;19932;-69
2021/11/04 02:49:33;;;;;;;;;;;;;;;;;;5081444;28;19925;-68
2021/11/04 02:52:00;;;;;;;;;;;;;;;;;;5082626;28;19983;-69
2021/11/04 02:54:27;;;;;;;;;;;;;;;;;;5082264;28;19996;-69
2021/11/04 02:56:55;;;;;;;;;;;;;;;;;;5084808;28;19987;-68
2021/11/04 02:59:23;;;;;;;;;;;;;;;;;;5076271;28;19924;-69
2021/11/04 03:01:50;;;;;;;;;;;;;;;;;;5083208;28;20369;-69
2021/11/04 03:04:16;;;;;;;;;;;;;;;;;;5081660;28;19980;-67
2021/11/04 03:06:43;;;;;;;;;;;;;;;;;;5081045;28;19925;-68
2021/11/04 03:09:10;;;;;;;;;;;;;;;;;;5076811;28;19924;-69
2021/11/04 03:11:37;;;;;;;;;;;;;;;;;;5075601;28;20008;-68
2021/11/04 03:14:04;;;;;;;;;;;;;;;;;;5076311;28;19932;-68
2021/11/04 03:16:31;;;;;;;;;;;;;;;;;;5080613;28;19943;-68
2021/11/04 03:18:58;;;;;;;;;;;;;;;;;;5078469;28;19931;-68
2021/11/04 03:21:25;;;;;;;;;;;;;;;;;;5079939;28;19997;-67
2021/11/04 03:23:52;;;;;;;;;;;;;;;;;;5078959;28;20412;-68
2021/11/04 03:26:19;;;;;;;;;;;;;;;;;;5077673;28;20023;-69
2021/11/04 03:28:46;;;;;;;;;;;;;;;;;;5078259;28;19931;-67
2021/11/04 03:31:13;;;;;;;;;;;;;;;;;;5069824;28;19925;-69
2021/11/04 03:33:40;;;;;;;;;;;;;;;;;;5077732;28;19931;-68
2021/11/04 03:36:07;;;;;;;;;;;;;;;;;;5079415;28;19992;-70
2021/11/04 03:38:34;;;;;;;;;;;;;;;;;;5079648;28;19924;-67
2021/11/04 03:41:01;;;;;;;;;;;;;;;;;;5076189;28;19990;-68
2021/11/04 03:43:28;;;;;;;;;;;;;;;;;;5075461;28;20124;-66
2021/11/04 03:45:55;;;;;;;;;;;;;;;;;;5064362;28;19930;-65
2021/11/04 03:48:22;;;;;;;;;;;;;;;;;;5067310;28;19924;-66
2021/11/04 03:50:49;;;;;;;;;;;;;;;;;;5063854;28;20399;-69
2021/11/04 03:53:16;;;;;;;;;;;;;;;;;;5069186;28;19924;-67
2021/11/04 03:55:43;;;;;;;;;;;;;;;;;;5067554;28;19924;-66
2021/11/04 03:58:10;;;;;;;;;;;;;;;;;;5069370;28;20028;-66
2021/11/04 04:00:37;;;;;;;;;;;;;;;;;;5068665;28;19924;-67
2021/11/04 04:03:04;;;;;;;;;;;;;;;;;;5068385;28;20003;-66
2021/11/04 04:05:31;;;;;;;;;;;;;;;;;;5065519;28;19924;-66
2021/11/04 04:07:58;;;;;;;;;;;;;;;;;;5064813;28;20300;-68
2021/11/04 04:10:25;;;;;;;;;;;;;;;;;;5066528;28;19935;-66
2021/11/04 04:12:52;;;;;;;;;;;;;;;;;;5073632;28;20027;-66
2021/11/04 04:15:19;;;;;;;;;;;;;;;;;;5075944;28;19924;-69
2021/11/04 04:17:46;;;;;;;;;;;;;;;;;;5067554;28;19977;-67
2021/11/04 04:20:13;;;;;;;;;;;;;;;;;;5066742;28;19925;-67
2021/11/04 04:22:39;;;;;;;;;;;;;;;;;;5065578;28;20285;-67
2021/11/04 04:25:06;;;;;;;;;;;;;;;;;;5067580;28;19928;-67
2021/11/04 04:27:33;;;;;;;;;;;;;;;;;;5065629;28;19947;-67
2021/11/04 04:30:00;;;;;;;;;;;;;;;;;;5067049;28;20300;-67
2021/11/04 04:32:27;;;;;;;;;;;;;;;;;;5067562;28;19924;-66
2021/11/04 04:34:56;;;;;;;;;;;;;;;;;;5067475;28;20305;-67
2021/11/04 04:37:23;;;;;;;;;;;;;;;;;;5067736;28;19928;-67
2021/11/04 04:39:50;;;;;;;;;;;;;;;;;;5065054;28;19946;-67
2021/11/04 04:42:17;;;;;;;;;;;;;;;;;;5067297;28;19925;-67
2021/11/04 04:44:43;;;;;;;;;;;;;;;;;;5064190;28;19931;-66
2021/11/04 04:47:10;;;;;;;;;;;;;;;;;;5064943;28;19924;-68
2021/11/04 04:49:37;;;;;;;;;;;;;;;;;;5064258;28;19930;-67
2021/11/04 04:52:04;;;;;;;;;;;;;;;;;;5064741;28;19925;-68
2021/11/04 04:54:31;;;;;;;;;;;;;;;;;;5067687;28;19947;-66
2021/11/04 04:56:58;;;;;;;;;;;;;;;;;;5070316;28;21815;-67
2021/11/04 04:59:25;;;;;;;;;;;;;;;;;;5065929;28;19936;-66
2021/11/04 05:01:52;;;;;;;;;;;;;;;;;;5067709;28;19935;-65
2021/11/04 05:04:19;;;;;;;;;;;;;;;;;;5068759;28;20041;-66
2021/11/04 05:06:46;;;;;;;;;;;;;;;;;;5069140;28;19933;-67
2021/11/04 05:09:13;;;;;;;;;;;;;;;;;;5069387;28;19947;-66
2021/11/04 05:11:39;;;;;;;;;;;;;;;;;;5069770;28;19931;-67
2021/11/04 05:14:06;;;;;;;;;;;;;;;;;;5068087;28;19932;-67
2021/11/04 05:16:33;;;;;;;;;;;;;;;;;;5066468;28;20308;-66
2021/11/04 05:19:01;;;;;;;;;;;;;;;;;;5068788;28;19924;-66
2021/11/04 05:21:28;;;;;;;;;;;;;;;;;;5064570;28;19998;-66
2021/11/04 05:23:55;;;;;;;;;;;;;;;;;;5067256;28;19932;-66
2021/11/04 05:26:22;;;;;;;;;;;;;;;;;;5068785;28;20410;-66
2021/11/04 05:28:49;;;;;;;;;;;;;;;;;;5065286;28;19928;-68
2021/11/04 05:31:16;;;;;;;;;;;;;;;;;;5070717;28;19925;-67
2021/11/04 05:33:43;;;;;;;;;;;;;;;;;;5072834;28;19932;-68
2021/11/04 05:36:10;;;;;;;;;;;;;;;;;;5069183;28;19924;-67
2021/11/04 05:38:37;;;;;;;;;;;;;;;;;;5073270;28;19924;-67
2021/11/04 05:41:04;;;;;;;;;;;;;;;;;;5064273;28;20369;-67
2021/11/04 05:43:31;;;;;;;;;;;;;;;;;;5073706;28;19925;-67
2021/11/04 05:45:57;;;;;;;;;;;;;;;;;;5068611;28;20308;-67
2021/11/04 05:48:24;;;;;;;;;;;;;;;;;;5069825;28;19924;-68
2021/11/04 05:50:52;;;;;;;;;;;;;;;;;;5069615;28;19932;-67
2021/11/04 05:53:19;;;;;;;;;;;;;;;;;;5068978;28;19925;-68
2021/11/04 05:55:48;;;;;;;;;;;;;;;;;;5072455;28;19954;-66
2021/11/04 05:58:15;;;;;;;;;;;;;;;;;;5065109;28;19938;-66
2021/11/04 06:00:42;;;;;;;;;;;;;;;;;;5066270;28;19924;-67
2021/11/04 06:03:11;;;;;;;;;;;;;;;;;;5068630;28;19928;-67
2021/11/04 06:05:38;;;;;;;;;;;;;;;;;;5070241;28;19925;-67
2021/11/04 06:08:04;;;;;;;;;;;;;;;;;;5069344;28;19924;-67
2021/11/04 06:10:32;;;;;;;;;;;;;;;;;;5070435;28;19924;-67
2021/11/04 06:12:59;;;;;;;;;;;;;;;;;;5071100;28;19950;-68
2021/11/04 06:15:26;;;;;;;;;;;;;;;;;;5071098;28;20011;-65
2021/11/04 06:17:53;;;;;;;;;;;;;;;;;;5070731;28;19947;-66
2021/11/04 06:20:20;;;;;;;;;;;;;;;;;;5071970;28;20015;-66
2021/11/04 06:22:47;;;;;;;;;;;;;;;;;;5068761;28;19940;-66
2021/11/04 06:25:14;;;;;;;;;;;;;;;;;;5070733;28;19932;-67
2021/11/04 06:27:41;;;;;;;;;;;;;;;;;;5071808;28;20295;-67
2021/11/04 06:30:08;;;;;;;;;;;;;;;;;;5072391;28;19925;-67
2021/11/04 06:32:35;;;;;;;;;;;;;;;;;;5074487;28;20001;-68
2021/11/04 06:35:02;;;;;;;;;;;;;;;;;;5072538;28;19924;-67
2021/11/04 06:37:29;;;;;;;;;;;;;;;;;;5081175;28;19924;-67
2021/11/04 06:39:56;;;;;;;;;;;;;;;;;;5083443;28;19952;-69
2021/11/04 06:42:23;;;;;;;;;;;;;;;;;;5087634;28;20023;-68
2021/11/04 06:44:50;;;;;;;;;;;;;;;;;;5076136;28;19932;-68
2021/11/04 06:47:17;;;;;;;;;;;;;;;;;;5071756;28;19924;-65
2021/11/04 06:49:44;;;;;;;;;;;;;;;;;;5069712;28;20381;-66
2021/11/04 06:52:11;;;;;;;;;;;;;;;;;;5066428;28;19947;-67
2021/11/04 06:54:38;;;;;;;;;;;;;;;;;;5071835;28;19931;-66
2021/11/04 06:57:05;;;;;;;;;;;;;;;;;;5069121;28;19925;-66
2021/11/04 06:59:31;;;;;;;;;;;;;;;;;;5070811;28;19929;-66
2021/11/04 07:01:59;;;;;;;;;;;;;;;;;;5068023;28;19928;-65
2021/11/04 07:04:26;;;;;;;;;;;;;;;;;;5068557;28;20019;-67
2021/11/04 07:07:00;;;;;;;;;;;;;;;;;;5066226;28;19933;-65
2021/11/04 07:09:27;;;;;;;;;;;;;;;;;;5069905;28;19924;-66
2021/11/04 07:11:54;;;;;;;;;;;;;;;;;;5068860;28;19924;-65
2021/11/04 07:14:21;;;;;;;;;;;;;;;;;;5070429;28;19931;-65
2021/11/04 07:16:48;;;;;;;;;;;;;;;;;;5066258;28;19924;-67
2021/11/04 07:19:19;;;;;;;;;;;;;;;;;;5067317;28;19931;-65
2021/11/04 07:21:46;;;;;;;;;;;;;;;;;;5068659;28;19944;-66
2021/11/04 07:24:13;;;;;;;;;;;;;;;;;;5068743;28;20046;-65
2021/11/04 07:26:40;;;;;;;;;;;;;;;;;;5069696;28;19940;-65
2021/11/04 07:29:07;;;;;;;;;;;;;;;;;;5067346;28;19931;-66
2021/11/04 07:31:33;;;;;;;;;;;;;;;;;;5067386;28;19936;-65
2021/11/04 07:34:01;;;;;;;;;;;;;;;;;;5068098;28;19944;-66
2021/11/04 07:36:28;;;;;;;;;;;;;;;;;;5067822;28;19929;-65
2021/11/04 07:38:55;;;;;;;;;;;;;;;;;;5066855;28;19928;-65
2021/11/04 07:41:22;;;;;;;;;;;;;;;;;;5051016;28;19928;-71
2021/11/04 07:43:49;;;;;;;;;;;;;;;;;;5057973;28;19931;-69
2021/11/04 07:46:16;;;;;;;;;;;;;;;;;;5060163;28;20161;-68
2021/11/04 07:48:43;;;;;;;;;;;;;;;;;;5059795;28;19932;-67
2021/11/04 07:51:10;;;;;;;;;;;;;;;;;;5064429;28;19983;-66
2021/11/04 07:53:37;;;;;;;;;;;;;;;;;;5065986;28;19935;-65
2021/11/04 07:56:04;;;;;;;;;;;;;;;;;;5060254;28;19935;-65
2021/11/04 07:58:31;;;;;;;;;;;;;;;;;;5067097;28;19924;-66
2021/11/04 08:00:58;;;;;;;;;;;;;;;;;;5065404;28;19924;-66
2021/11/04 08:03:25;;;;;;;;;;;;;;;;;;5067769;28;19924;-68
2021/11/04 08:05:52;;;;;;;;;;;;;;;;;;5065377;28;19924;-67
2021/11/04 08:08:19;;;;;;;;;;;;;;;;;;5066362;28;20438;-66
2021/11/04 08:10:46;;;;;;;;;;;;;;;;;;5062188;28;19928;-66
2021/11/04 08:13:14;;;;;;;;;;;;;;;;;;5064027;28;19943;-68
2021/11/04 08:15:41;;;;;;;;;;;;;;;;;;5065655;28;19935;-67
2021/11/04 08:18:08;;;;;;;;;;;;;;;;;;5063546;28;19933;-67
2021/11/04 08:20:35;;;;;;;;;;;;;;;;;;5065337;28;19950;-67
2021/11/04 08:23:02;;;;;;;;;;;;;;;;;;5067458;28;19932;-66
2021/11/04 08:25:29;;;;;;;;;;;;;;;;;;5066432;28;20345;-67
2021/11/04 08:27:56;;;;;;;;;;;;;;;;;;5067153;28;19931;-66
2021/11/04 08:30:24;;;;;;;;;;;;;;;;;;5066617;28;19924;-67
2021/11/04 08:32:51;;;;;;;;;;;;;;;;;;5068172;28;20359;-68
2021/11/04 08:35:18;;;;;;;;;;;;;;;;;;5065640;28;19924;-68
2021/11/04 08:37:45;;;;;;;;;;;;;;;;;;5063589;28;19929;-67
2021/11/04 08:40:12;;;;;;;;;;;;;;;;;;5067765;28;20376;-67
2021/11/04 08:42:39;;;;;;;;;;;;;;;;;;5066248;28;19924;-66
2021/11/04 08:45:06;;;;;;;;;;;;;;;;;;5063547;28;20019;-68
2021/11/04 08:47:33;;;;;;;;;;;;;;;;;;5065309;28;19932;-67
2021/11/04 08:50:00;;;;;;;;;;;;;;;;;;5068510;28;19924;-68
2021/11/04 08:52:27;;;;;;;;;;;;;;;;;;5059070;28;19929;-66
2021/11/04 08:54:55;;;;;;;;;;;;;;;;;;5059977;28;20007;-68
2021/11/04 08:57:22;;;;;;;;;;;;;;;;;;5067807;28;19939;-67
2021/11/04 08:59:49;;;;;;;;;;;;;;;;;;5066614;28;19925;-68
2021/11/04 09:02:15;;;;;;;;;;;;;;;;;;5069980;28;19972;-68
2021/11/04 09:04:43;;;;;;;;;;;;;;;;;;5069966;28;20374;-67
2021/11/04 09:07:10;;;;;;;;;;;;;;;;;;5076422;28;19924;-67
2021/11/04 09:09:37;;;;;;;;;;;;;;;;;;5070018;28;19928;-64
2021/11/04 09:12:04;;;;;;;;;;;;;;;;;;5071902;28;20295;-67
2021/11/04 09:14:30;;;;;;;;;;;;;;;;;;5072562;28;19925;-67
2021/11/04 09:16:57;;;;;;;;;;;;;;;;;;5072082;28;19932;-67
2021/11/04 09:19:24;;;;;;;;;;;;;;;;;;5069943;28;19925;-66
2021/11/04 09:21:51;;;;;;;;;;;;;;;;;;5068875;28;20430;-64
2021/11/04 09:24:18;;;;;;;;;;;;;;;;;;5071158;28;19925;-67
2021/11/04 09:26:45;;;;;;;;;;;;;;;;;;5068095;28;20299;-66
2021/11/04 09:29:12;;;;;;;;;;;;;;;;;;5069760;28;19924;-65
2021/11/04 09:31:39;;;;;;;;;;;;;;;;;;5066893;28;19932;-66
2021/11/04 09:34:06;;;;;;;;;;;;;;;;;;5069101;28;19929;-66
2021/11/04 09:36:33;;;;;;;;;;;;;;;;;;5069213;28;19940;-66
2021/11/04 09:39:00;;;;;;;;;;;;;;;;;;5065523;28;19925;-67
2021/11/04 09:41:27;;;;;;;;;;;;;;;;;;5066831;28;19928;-66
2021/11/04 09:43:54;;;;;;;;;;;;;;;;;;5070641;28;19935;-67
2021/11/04 09:46:21;;;;;;;;;;;;;;;;;;5068612;28;19924;-67
2021/11/04 09:48:48;;;;;;;;;;;;;;;;;;5072830;28;20411;-66
2021/11/04 09:51:15;;;;;;;;;;;;;;;;;;5068497;28;19932;-66
2021/11/04 09:53:43;;;;;;;;;;;;;;;;;;5061425;28;20427;-70
2021/11/04 09:56:10;;;;;;;;;;;;;;;;;;5067573;28;19924;-67
2021/11/04 09:58:37;;;;;;;;;;;;;;;;;;5064085;28;19931;-68
2021/11/04 10:01:04;;;;;;;;;;;;;;;;;;5065073;28;20038;-66
2021/11/04 10:03:31;;;;;;;;;;;;;;;;;;5065056;28;19947;-67
2021/11/04 10:05:58;;;;;;;;;;;;;;;;;;5067715;28;19932;-69
2021/11/04 10:08:25;;;;;;;;;;;;;;;;;;5069570;28;19932;-68
2021/11/04 10:10:52;;;;;;;;;;;;;;;;;;5061599;28;19925;-69
2021/11/04 10:13:19;;;;;;;;;;;;;;;;;;5065364;28;20299;-69
2021/11/04 10:15:46;;;;;;;;;;;;;;;;;;5069370;28;19925;-67
2021/11/04 10:18:13;;;;;;;;;;;;;;;;;;5068109;28;19947;-69
2021/11/04 10:20:40;;;;;;;;;;;;;;;;;;5071067;28;19931;-68
2021/11/04 10:23:07;;;;;;;;;;;;;;;;;;5069621;28;20392;-67
2021/11/04 10:25:34;;;;;;;;;;;;;;;;;;5068609;28;19928;-67
2021/11/04 10:28:03;;;;;;;;;;;;;;;;;;5066503;28;20380;-68
2021/11/04 10:30:30;;;;;;;;;;;;;;;;;;5071303;28;20001;-67
2021/11/04 10:32:57;;;;;;;;;;;;;;;;;;5065287;28;19939;-70
2021/11/04 10:35:24;;;;;;;;;;;;;;;;;;5061377;28;19940;-68
2021/11/04 10:37:51;;;;;;;;;;;;;;;;;;5067229;28;19924;-69
2021/11/04 10:40:18;;;;;;;;;;;;;;;;;;5065865;28;19966;-67
2021/11/04 10:42:45;;;;;;;;;;;;;;;;;;5066177;28;20052;-65
2021/11/04 10:45:12;;;;;;;;;;;;;;;;;;5064418;28;19992;-67
2021/11/04 10:47:39;;;;;;;;;;;;;;;;;;5066922;28;19963;-68
2021/11/04 10:50:06;;;;;;;;;;;;;;;;;;5063468;28;20411;-66
2021/11/04 10:52:33;;;;;;;;;;;;;;;;;;5062774;28;19924;-66
2021/11/04 10:55:03;;;;;;;;;;;;;;;;;;5061190;28;20388;-67
2021/11/04 10:57:29;;;;;;;;;;;;;;;;;;5068446;28;20021;-66
2021/11/04 10:59:56;;;;;;;;;;;;;;;;;;5068704;28;19928;-67
2021/11/04 11:02:23;;;;;;;;;;;;;;;;;;5066626;28;19925;-67
2021/11/04 11:04:50;;;;;;;;;;;;;;;;;;5067845;28;19947;-66
2021/11/04 11:07:17;;;;;;;;;;;;;;;;;;5067680;28;19935;-65
2021/11/04 11:09:44;;;;;;;;;;;;;;;;;;5067709;28;19924;-69
2021/11/04 11:12:11;;;;;;;;;;;;;;;;;;5066136;28;19932;-66
2021/11/04 11:14:39;;;;;;;;;;;;;;;;;;5066752;28;20384;-67
2021/11/04 11:17:06;;;;;;;;;;;;;;;;;;5064529;28;20360;-68
2021/11/04 11:19:33;;;;;;;;;;;;;;;;;;5065076;28;19931;-68
2021/11/04 11:22:00;;;;;;;;;;;;;;;;;;5066573;28;19944;-67
2021/11/04 11:24:27;;;;;;;;;;;;;;;;;;5068405;28;19932;-67
2021/11/04 11:26:54;;;;;;;;;;;;;;;;;;5068775;28;19935;-67
2021/11/04 11:29:21;;;;;;;;;;;;;;;;;;5063957;28;19932;-67
2021/11/04 11:31:48;;;;;;;;;;;;;;;;;;5068200;28;20304;-66
2021/11/04 11:34:16;;;;;;;;;;;;;;;;;;5066033;28;19932;-68
2021/11/04 11:36:43;;;;;;;;;;;;;;;;;;5069181;28;19971;-68
2021/11/04 11:39:11;;;;;;;;;;;;;;;;;;5065917;28;19924;-68
2021/11/04 11:41:38;;;;;;;;;;;;;;;;;;5070166;28;19924;-66
2021/11/04 11:44:07;;;;;;;;;;;;;;;;;;5064382;28;19924;-67
2021/11/04 11:46:34;;;;;;;;;;;;;;;;;;5064013;28;20285;-66
2021/11/04 11:49:01;;;;;;;;;;;;;;;;;;5064725;28;19925;-67
2021/11/04 11:51:28;;;;;;;;;;;;;;;;;;5066947;28;19924;-66
2021/11/04 11:53:55;;;;;;;;;;;;;;;;;;5067548;28;19925;-66
2021/11/04 11:56:22;;;;;;;;;;;;;;;;;;5055716;28;20385;-66
2021/11/04 11:58:50;;;;;;;;;;;;;;;;;;5069112;28;19932;-66
2021/11/04 12:01:17;;;;;;;;;;;;;;;;;;5062690;28;19936;-66
2021/11/04 12:03:44;;;;;;;;;;;;;;;;;;5068145;28;19939;-64
2021/11/04 12:06:11;;;;;;;;;;;;;;;;;;5068325;28;19939;-67
2021/11/04 12:08:38;;;;;;;;;;;;;;;;;;5061740;28;19932;-67
2021/11/04 12:11:05;;;;;;;;;;;;;;;;;;5067510;28;20345;-69
2021/11/04 12:13:33;;;;;;;;;;;;;;;;;;5064609;28;19971;-66
2021/11/04 12:16:00;;;;;;;;;;;;;;;;;;5069341;28;19932;-66
2021/11/04 12:18:27;;;;;;;;;;;;;;;;;;5071202;28;20392;-68
2021/11/04 12:20:54;;;;;;;;;;;;;;;;;;5069828;28;19932;-66
2021/11/04 12:23:21;;;;;;;;;;;;;;;;;;5062710;28;19925;-68
2021/11/04 12:25:48;;;;;;;;;;;;;;;;;;5067281;28;19925;-66
2021/11/04 12:28:15;;;;;;;;;;;;;;;;;;5065582;28;20411;-66
2021/11/04 12:30:42;;;;;;;;;;;;;;;;;;5063647;28;19924;-66
2021/11/04 12:33:09;;;;;;;;;;;;;;;;;;5063580;28;19928;-68
2021/11/04 12:35:36;;;;;;;;;;;;;;;;;;5062386;28;20019;-68
2021/11/04 12:38:03;;;;;;;;;;;;;;;;;;5065781;28;19974;-66
2021/11/04 12:40:30;;;;;;;;;;;;;;;;;;5063244;28;20027;-66
2021/11/04 12:42:57;;;;;;;;;;;;;;;;;;5065062;28;20486;-67
2021/11/04 12:45:25;;;;;;;;;;;;;;;;;;5062385;28;20385;-66
2021/11/04 12:47:52;;;;;;;;;;;;;;;;;;5062760;28;19956;-65
2021/11/04 12:50:19;;;;;;;;;;;;;;;;;;5064990;28;20003;-67
2021/11/04 12:52:45;;;;;;;;;;;;;;;;;;5064789;28;20368;-69
2021/11/04 12:55:12;;;;;;;;;;;;;;;;;;5064356;28;19924;-66
2021/11/04 12:57:39;;;;;;;;;;;;;;;;;;5060519;28;19928;-69
2021/11/04 13:00:06;;;;;;;;;;;;;;;;;;5064549;28;19924;-67
2021/11/04 13:02:35;;;;;;;;;;;;;;;;;;5063389;28;19924;-67
2021/11/04 13:05:02;;;;;;;;;;;;;;;;;;5062730;28;19924;-67
2021/11/04 13:07:31;;;;;;;;;;;;;;;;;;5061722;28;20047;-69
2021/11/04 13:09:58;;;;;;;;;;;;;;;;;;5064668;28;20327;-66
2021/11/04 13:12:25;;;;;;;;;;;;;;;;;;5060966;28;20023;-66
2021/11/04 13:14:52;;;;;;;;;;;;;;;;;;5068142;28;19977;-67
2021/11/04 13:17:19;;;;;;;;;;;;;;;;;;5065860;28;19931;-66
2021/11/04 13:19:46;;;;;;;;;;;;;;;;;;5056765;28;19925;-64
2021/11/04 13:22:13;;;;;;;;;;;;;;;;;;5062937;28;19925;-66
2021/11/04 13:24:40;;;;;;;;;;;;;;;;;;5063118;28;19932;-68
2021/11/04 13:27:07;;;;;;;;;;;;;;;;;;5063831;28;19925;-66
2021/11/04 13:29:34;;;;;;;;;;;;;;;;;;5057532;28;20893;-68
2021/11/04 13:32:01;;;;;;;;;;;;;;;;;;5059697;28;20028;-66
2021/11/04 13:34:28;;;;;;;;;;;;;;;;;;5064171;28;20308;-67
2021/11/04 13:36:57;;;;;;;;;;;;;;;;;;5058711;28;19933;-65
2021/11/04 13:39:24;;;;;;;;;;;;;;;;;;5061466;28;19932;-68
2021/11/04 13:41:52;;;;;;;;;;;;;;;;;;5058029;28;19925;-68
2021/11/04 13:44:19;;;;;;;;;;;;;;;;;;5062114;28;20348;-66
2021/11/04 13:46:46;;;;;;;;;;;;;;;;;;5059808;28;19925;-67
2021/11/04 13:49:13;;;;;;;;;;;;;;;;;;5066489;28;19931;-66
2021/11/04 13:51:40;;;;;;;;;;;;;;;;;;5065280;28;19928;-66
2021/11/04 13:54:07;;;;;;;;;;;;;;;;;;5068081;28;19929;-65
2021/11/04 13:56:34;;;;;;;;;;;;;;;;;;5063502;28;19924;-66
2021/11/04 13:59:02;;;;;;;;;;;;;;;;;;5060114;28;19947;-67
2021/11/04 14:01:29;;;;;;;;;;;;;;;;;;5064168;28;19936;-70
2021/11/04 14:03:56;;;;;;;;;;;;;;;;;;5068480;28;19925;-66
2021/11/04 14:06:23;;;;;;;;;;;;;;;;;;5068532;28;19932;-66
2021/11/04 14:08:50;;;;;;;;;;;;;;;;;;5065193;28;19950;-65
2021/11/04 14:11:17;;;;;;;;;;;;;;;;;;5065832;28;19931;-68
2021/11/04 14:13:44;;;;;;;;;;;;;;;;;;5069014;28;20269;-65
2021/11/04 14:16:11;;;;;;;;;;;;;;;;;;5065831;28;19938;-66
2021/11/04 14:18:38;;;;;;;;;;;;;;;;;;5070155;28;19929;-65
2021/11/04 14:21:05;;;;;;;;;;;;;;;;;;5066074;28;20351;-66
2021/11/04 14:23:32;;;;;;;;;;;;;;;;;;5068028;28;19925;-66
2021/11/04 14:25:59;;;;;;;;;;;;;;;;;;5065508;28;19924;-68
2021/11/04 14:28:26;;;;;;;;;;;;;;;;;;5066439;28;19964;-67
2021/11/04 14:30:54;;;;;;;;;;;;;;;;;;5070524;28;19925;-67
2021/11/04 14:33:21;;;;;;;;;;;;;;;;;;5062352;28;19940;-67
2021/11/04 14:35:48;;;;;;;;;;;;;;;;;;5067947;28;19924;-67
2021/11/04 14:38:15;;;;;;;;;;;;;;;;;;5060665;28;19925;-67
2021/11/04 14:40:42;;;;;;;;;;;;;;;;;;5066148;28;19924;-67
2021/11/04 14:43:09;;;;;;;;;;;;;;;;;;5065988;28;19931;-68
2021/11/04 14:45:36;;;;;;;;;;;;;;;;;;5065347;28;19968;-68
2021/11/04 14:48:04;;;;;;;;;;;;;;;;;;5062882;28;20037;-66
2021/11/04 14:50:32;;;;;;;;;;;;;;;;;;5063474;28;20000;-64
2021/11/04 14:52:59;;;;;;;;;;;;;;;;;;5063484;28;19928;-68
2021/11/04 14:55:26;;;;;;;;;;;;;;;;;;5065276;28;20348;-66
2021/11/04 14:57:53;;;;;;;;;;;;;;;;;;5066391;28;19925;-66
2021/11/04 15:00:20;;;;;;;;;;;;;;;;;;5063475;28;19925;-65
2021/11/04 15:02:47;;;;;;;;;;;;;;;;;;5068857;28;19925;-67
2021/11/04 15:05:14;;;;;;;;;;;;;;;;;;5065633;28;20019;-66
2021/11/04 15:07:41;;;;;;;;;;;;;;;;;;5066982;28;20366;-66
2021/11/04 15:10:08;;;;;;;;;;;;;;;;;;5070358;28;19928;-66
2021/11/04 15:12:35;;;;;;;;;;;;;;;;;;5067961;28;20363;-67
2021/11/04 15:15:02;;;;;;;;;;;;;;;;;;5067690;28;20015;-67
2021/11/04 15:17:29;;;;;;;;;;;;;;;;;;5070840;28;20027;-67
2021/11/04 15:19:56;;;;;;;;;;;;;;;;;;5069667;28;19931;-67
2021/11/04 15:22:23;;;;;;;;;;;;;;;;;;5069986;28;20317;-66
2021/11/04 15:24:50;;;;;;;;;;;;;;;;;;5067720;28;19931;-66
2021/11/04 15:27:17;;;;;;;;;;;;;;;;;;5066992;28;20027;-67
2021/11/04 15:29:44;;;;;;;;;;;;;;;;;;5069346;28;19935;-68
2021/11/04 15:32:11;;;;;;;;;;;;;;;;;;5069358;28;19936;-66
2021/11/04 15:34:38;;;;;;;;;;;;;;;;;;5073231;28;19955;-67
2021/11/04 15:37:05;;;;;;;;;;;;;;;;;;5068443;28;19924;-68
2021/11/04 15:39:33;;;;;;;;;;;;;;;;;;5065698;28;20259;-68
2021/11/04 15:41:59;;;;;;;;;;;;;;;;;;5070763;28;20565;-67
2021/11/04 15:44:26;;;;;;;;;;;;;;;;;;5101392;22;19988;-61
2021/11/04 15:46:53;;;;;;;;;;;;;;;;;;5092904;28;19971;-61
2021/11/04 15:49:20;;;;;;;;;;;;;;;;;;5094533;28;19932;-57
2021/11/04 15:51:48;;;;;;;;;;;;;;;;;;5097358;28;19929;-58
2021/11/04 15:54:14;;;;;;;;;;;;;;;;;;5097643;28;19924;-58
2021/11/04 15:56:41;;;;;;;;;;;;;;;;;;5091730;28;19968;-59
2021/11/04 15:59:08;;;;;;;;;;;;;;;;;;5096767;28;19928;-60
2021/11/04 16:01:36;;;;;;;;;;;;;;;;;;5097445;28;19984;-57
2021/11/04 16:04:03;;;;;;;;;;;;;;;;;;5093064;28;19973;-59
2021/11/04 16:06:29;;;;;;;;;;;;;;;;;;5091741;28;19924;-59
2021/11/04 16:08:57;;;;;;;;;;;;;;;;;;5093194;28;19967;-59
2021/11/04 16:11:24;;;;;;;;;;;;;;;;;;5094447;28;19943;-61
2021/11/04 16:13:51;;;;;;;;;;;;;;;;;;5098263;28;19924;-59
2021/11/04 16:16:18;;;;;;;;;;;;;;;;;;5096800;28;19930;-61
2021/11/04 16:18:45;;;;;;;;;;;;;;;;;;5094868;28;20386;-62
2021/11/04 16:21:12;;;;;;;;;;;;;;;;;;5096666;28;20383;-58
2021/11/04 16:23:39;;;;;;;;;;;;;;;;;;5098626;28;19924;-60
2021/11/04 16:26:06;;;;;;;;;;;;;;;;;;5096642;28;19935;-57
2021/11/04 16:28:33;;;;;;;;;;;;;;;;;;5092263;28;19935;-60
2021/11/04 16:31:01;;;;;;;;;;;;;;;;;;5096685;28;20014;-58
2021/11/04 16:33:28;;;;;;;;;;;;;;;;;;5098162;28;19928;-60
2021/11/04 16:35:55;;;;;;;;;;;;;;;;;;5103711;28;19923;-57
2021/11/04 16:38:22;;;;;;;;;;;;;;;;;;5082831;28;20255;-60
2021/11/04 16:40:49;;;;;;;;;;;;;;;;;;5099111;28;20031;-56
2021/11/04 16:43:16;;;;;;;;;;;;;;;;;;5096721;28;20007;-56